sensor_id;sensor_type;location;lat;lon;timestamp;temperature;humidity
21648;DHT22;10985;54.182;7.890;2023-04-03T17:59:46;7.70;99.90
21648;DHT22;10985;54.182;7.890;2023-04-03T18:02:12;7.50;99.90
21648;DHT22;10985;54.182;7.890;2023-04-03T18:04:37;7.50;99.90
21648;DHT22;10985;54.182;7.890;2023-04-03T18:07:03;7.40;99.90
21648;DHT22;10985;54.182;7.890;2023-04-03T18:09:35;7.40;99.90
21648;DHT22;10985;54.182;7.890;2023-04-03T18:12:04;7.40;99.90
21648;DHT22;10985;54.182;7.890;2023-04-03T18:14:31;7.40;99.90
21648;DHT22;10985;54.182;7.890;2023-04-03T18:16:58;7.40;99.90
21648;DHT22;10985;54.182;7.890;2023-04-03T18:19:24;7.40;99.90
21648;DHT22;10985;54.182;7.890;2023-04-03T18:21:51;7.40;99.90
21648;DHT22;10985;54.182;7.890;2023-04-03T18:24:20;7.30;99.90
21648;DHT22;10985;54.182;7.890;2023-04-03T18:26:52;7.30;99.90
21648;DHT22;10985;54.182;7.890;2023-04-03T18:29:19;7.40;99.90
21648;DHT22;10985;54.182;7.890;2023-04-03T18:31:47;7.40;99.90
21648;DHT22;10985;54.182;7.890;2023-04-03T18:34:14;7.30;99.90
21648;DHT22;10985;54.182;7.890;2023-04-03T18:36:40;7.30;99.90
21648;DHT22;10985;54.182;7.890;2023-04-03T18:39:06;7.30;99.90
21648;DHT22;10985;54.182;7.890;2023-04-03T18:41:32;7.30;99.90
21648;DHT22;10985;54.182;7.890;2023-04-03T18:44:01;7.30;99.90
21648;DHT22;10985;54.182;7.890;2023-04-03T18:46:27;7.30;99.90
21648;DHT22;10985;54.182;7.890;2023-04-03T18:48:53;7.20;99.90
21648;DHT22;10985;54.182;7.890;2023-04-03T18:51:19;7.30;99.90
21648;DHT22;10985;54.182;7.890;2023-04-03T18:53:45;7.20;99.90
21648;DHT22;10985;54.182;7.890;2023-04-03T18:56:11;7.20;99.90
21648;DHT22;10985;54.182;7.890;2023-04-03T18:58:36;7.20;99.90
21648;DHT22;10985;54.182;7.890;2023-04-03T19:01:02;7.20;99.90
21648;DHT22;10985;54.182;7.890;2023-04-03T19:03:30;7.20;99.90
21648;DHT22;10985;54.182;7.890;2023-04-03T19:05:56;7.20;99.90
21648;DHT22;10985;54.182;7.890;2023-04-03T19:08:22;7.20;99.90
21648;DHT22;10985;54.182;7.890;2023-04-03T19:10:48;7.10;99.90
21648;DHT22;10985;54.182;7.890;2023-04-03T19:13:13;7.10;99.90
21648;DHT22;10985;54.182;7.890;2023-04-03T19:15:39;7.10;99.90
21648;DHT22;10985;54.182;7.890;2023-04-03T19:18:05;7.10;99.90
21648;DHT22;10985;54.182;7.890;2023-04-03T19:20:30;7.10;99.90
21648;DHT22;10985;54.182;7.890;2023-04-03T19:22:56;7.10;99.90
21648;DHT22;10985;54.182;7.890;2023-04-03T19:25:21;7.10;99.90
21648;DHT22;10985;54.182;7.890;2023-04-03T19:27:48;7.10;99.90
21648;DHT22;10985;54.182;7.890;2023-04-03T19:30:14;7.00;99.90
21648;DHT22;10985;54.182;7.890;2023-04-03T19:32:40;7.00;99.90
21648;DHT22;10985;54.182;7.890;2023-04-03T19:35:05;6.90;99.90
21648;DHT22;10985;54.182;7.890;2023-04-03T19:37:31;6.90;99.90
21648;DHT22;10985;54.182;7.890;2023-04-03T19:39:57;6.80;99.90
21648;DHT22;10985;54.182;7.890;2023-04-03T19:42:23;6.80;99.90
21648;DHT22;10985;54.182;7.890;2023-04-03T19:44:52;6.80;99.90
21648;DHT22;10985;54.182;7.890;2023-04-03T19:47:17;6.70;99.90
21648;DHT22;10985;54.182;7.890;2023-04-03T19:49:46;6.70;99.90
21648;DHT22;10985;54.182;7.890;2023-04-03T19:52:12;6.60;99.90
21648;DHT22;10985;54.182;7.890;2023-04-03T19:54:38;6.60;99.90
21648;DHT22;10985;54.182;7.890;2023-04-03T19:57:03;6.60;99.90
21648;DHT22;10985;54.182;7.890;2023-04-03T19:59:29;6.60;99.90
21648;DHT22;10985;54.182;7.890;2023-04-03T20:01:55;6.50;99.90
21648;DHT22;10985;54.182;7.890;2023-04-03T20:04:21;6.60;99.90
21648;DHT22;10985;54.182;7.890;2023-04-03T20:06:46;6.60;99.90
21648;DHT22;10985;54.182;7.890;2023-04-03T20:09:14;6.60;99.90
21648;DHT22;10985;54.182;7.890;2023-04-03T20:11:40;6.50;99.90
21648;DHT22;10985;54.182;7.890;2023-04-03T20:14:06;6.50;99.90
21648;DHT22;10985;54.182;7.890;2023-04-03T20:16:32;6.50;99.90
21648;DHT22;10985;54.182;7.890;2023-04-03T20:18:57;6.50;99.90
21648;DHT22;10985;54.182;7.890;2023-04-03T20:21:29;6.50;99.90
21648;DHT22;10985;54.182;7.890;2023-04-03T20:23:55;6.50;99.90
21648;DHT22;10985;54.182;7.890;2023-04-03T20:26:23;6.50;99.90
21648;DHT22;10985;54.182;7.890;2023-04-03T20:28:53;6.50;99.90
21648;DHT22;10985;54.182;7.890;2023-04-03T20:31:21;6.40;99.90
21648;DHT22;10985;54.182;7.890;2023-04-03T20:33:47;6.40;99.90
21648;DHT22;10985;54.182;7.890;2023-04-03T20:36:14;6.40;99.90
21648;DHT22;10985;54.182;7.890;2023-04-03T20:38:40;6.40;99.90
21648;DHT22;10985;54.182;7.890;2023-04-03T20:41:06;6.40;99.90
21648;DHT22;10985;54.182;7.890;2023-04-03T20:43:32;6.40;99.90
21648;DHT22;10985;54.182;7.890;2023-04-03T20:45:59;6.40;99.90
21648;DHT22;10985;54.182;7.890;2023-04-03T20:48:25;6.40;99.90
21648;DHT22;10985;54.182;7.890;2023-04-03T20:50:51;6.40;99.90
21648;DHT22;10985;54.182;7.890;2023-04-03T20:53:17;6.40;99.90
21648;DHT22;10985;54.182;7.890;2023-04-03T20:55:54;6.40;99.90
21648;DHT22;10985;54.182;7.890;2023-04-03T20:58:20;6.40;99.90
21648;DHT22;10985;54.182;7.890;2023-04-03T21:00:48;6.40;99.90
21648;DHT22;10985;54.182;7.890;2023-04-03T21:03:13;6.30;99.90
21648;DHT22;10985;54.182;7.890;2023-04-03T21:05:39;6.30;99.90
21648;DHT22;10985;54.182;7.890;2023-04-03T21:19:42;6.20;99.90
21648;DHT22;10985;54.182;7.890;2023-04-03T21:22:11;6.20;99.90
21648;DHT22;10985;54.182;7.890;2023-04-03T21:24:38;6.20;99.90
21648;DHT22;10985;54.182;7.890;2023-04-03T21:27:03;6.20;99.90
21648;DHT22;10985;54.182;7.890;2023-04-03T21:29:29;6.20;99.90
21648;DHT22;10985;54.182;7.890;2023-04-03T21:31:57;6.20;99.90
21648;DHT22;10985;54.182;7.890;2023-04-03T21:34:24;6.20;99.90
21648;DHT22;10985;54.182;7.890;2023-04-03T21:36:50;6.20;99.90
21648;DHT22;10985;54.182;7.890;2023-04-03T21:39:17;6.20;99.90
21648;DHT22;10985;54.182;7.890;2023-04-03T21:41:42;6.20;99.90
21648;DHT22;10985;54.182;7.890;2023-04-03T21:44:08;6.10;99.90
21648;DHT22;10985;54.182;7.890;2023-04-03T21:46:33;6.10;99.90
21648;DHT22;10985;54.182;7.890;2023-04-03T21:49:00;6.10;99.90
21648;DHT22;10985;54.182;7.890;2023-04-03T21:51:25;6.10;99.90
21648;DHT22;10985;54.182;7.890;2023-04-03T21:53:52;6.10;99.90
21648;DHT22;10985;54.182;7.890;2023-04-03T21:56:19;6.10;99.90
21648;DHT22;10985;54.182;7.890;2023-04-03T21:58:46;6.10;99.90
21648;DHT22;10985;54.182;7.890;2023-04-03T22:01:13;6.10;99.90
21648;DHT22;10985;54.182;7.890;2023-04-03T22:03:41;6.00;99.90
21648;DHT22;10985;54.182;7.890;2023-04-03T22:06:07;6.00;99.90
21648;DHT22;10985;54.182;7.890;2023-04-03T22:08:33;6.00;99.90
